createdAt,value
2023-01-29T00:00:10.092Z,100774.16
2023-01-29T00:02:40.036Z,100780.97
2023-01-29T00:05:25.951Z,100787.88
2023-01-29T00:07:54.675Z,100786.31
2023-01-29T00:10:22.623Z,100790.19
2023-01-29T00:12:50.104Z,100787.13
2023-01-29T00:15:18.518Z,100791.47
2023-01-29T00:17:45.816Z,100791.16
2023-01-29T00:20:14.728Z,100790.09
2023-01-29T00:22:42.080Z,100794.38
2023-01-29T00:25:10.219Z,100795.28
2023-01-29T00:27:37.448Z,100787.84
2023-01-29T00:30:11.987Z,100795.50
2023-01-29T00:32:42.679Z,100794.00
2023-01-29T00:35:10.614Z,100787.88
2023-01-29T00:37:38.283Z,100788.16
2023-01-29T00:40:06.620Z,100790.94
2023-01-29T00:42:52.580Z,100793.31
2023-01-29T00:45:19.803Z,100787.44
2023-01-29T00:47:47.133Z,100790.38
2023-01-29T00:50:14.707Z,100793.53
2023-01-29T00:52:42.175Z,100792.97
2023-01-29T00:55:11.475Z,100783.84
2023-01-29T00:57:39.159Z,100786.38
2023-01-29T01:00:12.542Z,100791.69
2023-01-29T01:02:58.693Z,100784.72
2023-01-29T01:05:27.323Z,100781.81
2023-01-29T01:07:57.960Z,100785.47
2023-01-29T01:10:33.681Z,100791.84
2023-01-29T01:13:05.779Z,100790.50
2023-01-29T01:15:40.048Z,100795.09
2023-01-29T01:18:07.555Z,100794.22
2023-01-29T01:20:36.165Z,100801.78
2023-01-29T01:23:04.000Z,100806.69
2023-01-29T01:25:31.193Z,100808.25
2023-01-29T01:30:27.837Z,100814.34
2023-01-29T01:32:56.068Z,100816.56
2023-01-29T01:35:23.402Z,100818.75
2023-01-29T01:37:50.762Z,100813.28
2023-01-29T01:40:22.699Z,100821.69
2023-01-29T01:42:57.828Z,100818.63
2023-01-29T01:45:36.087Z,100814.06
2023-01-29T01:48:17.815Z,100811.66
2023-01-29T01:50:58.807Z,100815.78
2023-01-29T01:53:41.364Z,100821.38
2023-01-29T01:56:26.603Z,100819.81
2023-01-29T01:58:59.118Z,100819.13
2023-01-29T02:01:30.689Z,100824.94
2023-01-29T02:04:24.941Z,100827.09
2023-01-29T02:07:12.450Z,100802.00
2023-01-29T02:09:49.352Z,100816.72
2023-01-29T02:12:17.163Z,100810.25
2023-01-29T02:14:45.001Z,100809.38
2023-01-29T02:17:19.602Z,100814.34
2023-01-29T02:20:14.522Z,100816.50
2023-01-29T02:23:36.103Z,100818.31
2023-01-29T02:26:20.906Z,100818.63
2023-01-29T02:29:27.136Z,100816.25
2023-01-29T02:32:23.296Z,100818.66
2023-01-29T02:35:34.656Z,100820.84
2023-01-29T02:38:30.906Z,100832.34
2023-01-29T02:41:45.374Z,100830.97
2023-01-29T02:44:29.224Z,100835.06
2023-01-29T02:47:24.142Z,100836.00
2023-01-29T02:50:05.469Z,100839.50
2023-01-29T02:52:58.717Z,100839.72
2023-01-29T02:55:52.940Z,100846.50
2023-01-29T02:58:34.923Z,100844.28
2023-01-29T03:01:36.262Z,100841.53
2023-01-29T03:04:16.677Z,100841.53
2023-01-29T03:06:55.072Z,100841.03
2023-01-29T03:09:35.013Z,100842.13
2023-01-29T03:12:33.988Z,100840.31
2023-01-29T03:15:19.059Z,100849.06
2023-01-29T03:18:16.738Z,100841.78
2023-01-29T03:20:54.150Z,100849.53
2023-01-29T03:23:51.061Z,100842.53
2023-01-29T03:26:41.352Z,100841.44
2023-01-29T03:29:28.429Z,100843.59
2023-01-29T03:32:09.433Z,100840.13
2023-01-29T03:34:52.015Z,100839.63
2023-01-29T03:37:31.235Z,100841.44
2023-01-29T03:39:58.971Z,100841.44
2023-01-29T03:43:16.141Z,100844.75
2023-01-29T03:46:14.315Z,100848.03
2023-01-29T03:49:21.519Z,100842.88
2023-01-29T03:52:08.186Z,100847.84
2023-01-29T03:54:48.632Z,100853.16
2023-01-29T03:57:36.860Z,100855.75
2023-01-29T04:00:22.709Z,100849.75
2023-01-29T04:03:26.682Z,100843.00
2023-01-29T04:06:31.850Z,100844.81
2023-01-29T04:09:28.049Z,100852.84
2023-01-29T04:12:11.088Z,100851.22
2023-01-29T04:14:42.112Z,100854.88
2023-01-29T04:17:23.738Z,100853.63
2023-01-29T04:20:01.593Z,100854.75
2023-01-29T04:22:38.196Z,100848.88
2023-01-29T04:25:16.143Z,100855.28
2023-01-29T04:28:13.745Z,100852.91
2023-01-29T04:30:58.155Z,100851.41
2023-01-29T04:34:03.182Z,100847.72
2023-01-29T04:37:40.354Z,100848.25
2023-01-29T04:40:48.244Z,100855.41
2023-01-29T04:43:36.709Z,100849.53
2023-01-29T04:46:56.963Z,100857.63
2023-01-29T04:50:04.319Z,100863.16
2023-01-29T04:52:49.215Z,100867.00
2023-01-29T04:55:45.489Z,100863.56
2023-01-29T04:58:59.511Z,100867.97
2023-01-29T05:01:30.572Z,100861.38
2023-01-29T05:04:02.447Z,100861.75
2023-01-29T05:06:32.736Z,100859.91
2023-01-29T05:09:01.897Z,100859.91
2023-01-29T05:11:33.058Z,100858.03
2023-01-29T05:14:07.066Z,100858.56
2023-01-29T05:16:43.542Z,100857.66
2023-01-29T05:19:16.174Z,100857.22
2023-01-29T05:21:48.080Z,100850.06
2023-01-29T05:24:25.387Z,100863.84
2023-01-29T05:27:13.422Z,100868.28
2023-01-29T05:29:47.422Z,100866.47
2023-01-29T05:32:15.999Z,100869.47
2023-01-29T05:34:43.311Z,100877.16
2023-01-29T05:37:11.175Z,100876.41
2023-01-29T05:39:38.346Z,100876.41
2023-01-29T05:42:05.593Z,100878.44
2023-01-29T05:44:32.796Z,100886.69
2023-01-29T05:47:02.596Z,100884.28
2023-01-29T05:49:29.932Z,100878.59
2023-01-29T05:51:57.154Z,100885.16
2023-01-29T05:54:24.384Z,100881.63
2023-01-29T05:56:51.623Z,100885.44
2023-01-29T05:59:19.010Z,100886.50
2023-01-29T06:01:46.354Z,100883.78
2023-01-29T06:04:13.609Z,100885.53
2023-01-29T06:06:40.881Z,100882.78
2023-01-29T06:09:12.251Z,100893.03
2023-01-29T06:11:40.097Z,100901.13
2023-01-29T06:14:07.682Z,100897.50
2023-01-29T06:16:35.451Z,100905.00
2023-01-29T06:19:02.960Z,100908.88
2023-01-29T06:21:30.176Z,100908.13
2023-01-29T06:23:57.443Z,100908.34
2023-01-29T06:26:24.902Z,100912.53
2023-01-29T06:28:52.190Z,100914.91
2023-01-29T06:31:36.960Z,100922.22
2023-01-29T06:34:05.020Z,100922.94
2023-01-29T06:36:32.385Z,100925.34
2023-01-29T06:38:59.803Z,100918.53
2023-01-29T06:41:27.255Z,100929.09
2023-01-29T06:43:55.743Z,100927.22
2023-01-29T06:46:23.110Z,100933.63
2023-01-29T06:48:50.446Z,100936.38
2023-01-29T06:51:17.977Z,100947.41
2023-01-29T06:53:46.406Z,100943.66
2023-01-29T06:56:14.030Z,100943.47
2023-01-29T06:58:44.634Z,100948.03
2023-01-29T07:01:25.383Z,100957.72
2023-01-29T07:04:02.965Z,100964.81
2023-01-29T07:06:31.076Z,100961.69
2023-01-29T07:08:58.718Z,100969.34
2023-01-29T07:11:26.055Z,100971.78
2023-01-29T07:13:55.406Z,100972.69
2023-01-29T07:16:23.570Z,100981.47
2023-01-29T07:18:57.060Z,100987.69
2023-01-29T07:21:28.084Z,100988.78
2023-01-29T07:23:55.806Z,100986.22
2023-01-29T07:26:24.740Z,100988.41
2023-01-29T07:28:51.976Z,100987.31
2023-01-29T07:31:19.581Z,100991.28
2023-01-29T07:33:47.058Z,100992.34
2023-01-29T07:36:15.142Z,100987.94
2023-01-29T07:38:42.622Z,100994.41
2023-01-29T07:41:11.838Z,100998.72
2023-01-29T07:43:40.775Z,100998.28
2023-01-29T07:46:08.084Z,101007.81
2023-01-29T07:48:39.805Z,101006.50
2023-01-29T07:51:07.188Z,101009.56
2023-01-29T07:53:34.633Z,101017.06
2023-01-29T07:56:02.624Z,101018.31
2023-01-29T07:58:29.893Z,101017.00
2023-01-29T08:00:58.658Z,101017.13
2023-01-29T08:03:26.053Z,101009.22
2023-01-29T08:05:53.285Z,101011.78
2023-01-29T08:08:20.784Z,101015.78
2023-01-29T08:10:47.988Z,101020.25
2023-01-29T08:13:15.361Z,101022.13
2023-01-29T08:15:46.226Z,101030.69
2023-01-29T08:18:16.846Z,101028.00
2023-01-29T08:20:44.088Z,101037.59
2023-01-29T08:23:16.589Z,101034.28
2023-01-29T08:25:44.292Z,101029.97
2023-01-29T08:28:12.377Z,101044.59
2023-01-29T08:30:40.008Z,101053.66
2023-01-29T08:33:08.664Z,101055.81
2023-01-29T08:35:47.652Z,101059.22
2023-01-29T08:38:14.976Z,101062.38
2023-01-29T08:40:42.295Z,101075.19
2023-01-29T08:43:13.640Z,101085.72
2023-01-29T08:45:44.046Z,101081.75
2023-01-29T08:48:11.834Z,101086.63
2023-01-29T08:50:39.383Z,101077.81
2023-01-29T08:53:08.993Z,101071.53
2023-01-29T08:55:41.014Z,101077.81
2023-01-29T08:58:11.448Z,101073.38
2023-01-29T09:00:41.056Z,101077.56
2023-01-29T09:03:08.516Z,101082.00
2023-01-29T09:05:38.904Z,101086.84
2023-01-29T09:08:08.877Z,101073.50
2023-01-29T09:10:36.811Z,101073.81
2023-01-29T09:13:07.880Z,101075.53
2023-01-29T09:15:35.292Z,101078.16
2023-01-29T09:18:06.135Z,101082.63
2023-01-29T09:20:34.020Z,101073.41
2023-01-29T09:23:09.751Z,101073.75
2023-01-29T09:25:37.925Z,101079.53
2023-01-29T09:28:06.250Z,101085.63
2023-01-29T09:30:34.640Z,101074.75
2023-01-29T09:33:02.013Z,101081.56
2023-01-29T09:35:29.460Z,101079.94
2023-01-29T09:37:56.927Z,101074.19
2023-01-29T09:41:03.671Z,101081.13
2023-01-29T09:43:54.737Z,101073.78
2023-01-29T09:46:45.227Z,101067.97
2023-01-29T09:49:34.203Z,101072.28
2023-01-29T09:52:33.307Z,101063.28
2023-01-29T09:55:35.359Z,101063.72
2023-01-29T09:58:22.287Z,101057.38
2023-01-29T10:01:38.702Z,101060.41
2023-01-29T10:04:45.837Z,101057.25
2023-01-29T10:08:01.480Z,101054.28
2023-01-29T10:11:26.336Z,101050.91
2023-01-29T10:14:17.097Z,101053.59
2023-01-29T10:17:34.665Z,101042.47
2023-01-29T10:20:34.566Z,101034.88
2023-01-29T10:23:34.391Z,101027.13
2023-01-29T10:26:02.701Z,101031.03
2023-01-29T10:28:46.645Z,101024.88
2023-01-29T10:31:33.152Z,101025.84
2023-01-29T10:34:40.645Z,101030.88
2023-01-29T10:37:28.213Z,101010.72
2023-01-29T10:39:55.447Z,101014.38
2023-01-29T10:42:41.229Z,101003.75
2023-01-29T10:45:32.100Z,101007.19
2023-01-29T10:48:44.945Z,100994.03
2023-01-29T10:51:46.797Z,100991.16
2023-01-29T10:54:51.297Z,100984.56
2023-01-29T10:57:53.327Z,100976.28
2023-01-29T11:00:36.507Z,100980.63
2023-01-29T11:06:25.373Z,100965.84
2023-01-29T11:12:18.597Z,100945.22
2023-01-29T11:15:02.007Z,100942.03
2023-01-29T11:17:29.554Z,100919.25
2023-01-29T11:19:56.923Z,100932.22
2023-01-29T11:22:28.488Z,100930.06
2023-01-29T11:25:16.828Z,100929.47
2023-01-29T11:27:52.948Z,100918.13
2023-01-29T11:30:41.524Z,100917.03
2023-01-29T11:33:23.663Z,100902.31
2023-01-29T11:35:52.655Z,100893.72
2023-01-29T11:38:28.678Z,100893.47
2023-01-29T11:41:18.119Z,100886.34
2023-01-29T11:43:45.351Z,100881.50
2023-01-29T11:46:15.956Z,100880.78
2023-01-29T11:48:52.006Z,100889.22
2023-01-29T11:51:29.782Z,100881.25
2023-01-29T11:54:04.369Z,100877.31
2023-01-29T11:56:46.804Z,100873.66
2023-01-29T11:59:44.026Z,100880.47
2023-01-29T12:02:26.714Z,100869.44
2023-01-29T12:05:07.353Z,100865.59
2023-01-29T12:07:35.039Z,100865.19
2023-01-29T12:10:06.192Z,100865.41
2023-01-29T12:12:45.068Z,100869.94
2023-01-29T12:15:25.211Z,100868.28
2023-01-29T12:18:54.725Z,100864.53
2023-01-29T12:22:00.780Z,100865.19
2023-01-29T12:24:56.203Z,100862.31
2023-01-29T12:27:34.392Z,100859.47
2023-01-29T12:30:20.037Z,100851.47
2023-01-29T12:33:21.931Z,100839.06
2023-01-29T12:36:02.789Z,100836.63
2023-01-29T12:38:30.093Z,100814.91
2023-01-29T12:41:49.368Z,100817.47
2023-01-29T12:44:54.756Z,100828.00
2023-01-29T12:47:43.984Z,100821.88
2023-01-29T12:50:37.109Z,100812.63
2023-01-29T12:53:23.449Z,100808.59
2023-01-29T12:56:41.429Z,100802.81
2023-01-29T12:59:41.131Z,100804.63
2023-01-29T13:03:04.709Z,100794.59
2023-01-29T13:05:46.424Z,100783.81
2023-01-29T13:08:54.075Z,100776.19
2023-01-29T13:12:04.279Z,100774.34
2023-01-29T13:14:59.660Z,100760.13
2023-01-29T13:17:42.803Z,100762.13
2023-01-29T13:20:44.866Z,100763.47
2023-01-29T13:23:35.680Z,100757.28
2023-01-29T13:26:03.801Z,100742.75
2023-01-29T13:28:34.214Z,100743.56
2023-01-29T13:31:33.224Z,100740.91
2023-01-29T13:34:28.507Z,100738.88
2023-01-29T13:37:01.759Z,100737.91
2023-01-29T13:39:32.147Z,100737.44
2023-01-29T13:42:03.265Z,100726.91
2023-01-29T13:44:38.014Z,100731.66
2023-01-29T13:47:09.900Z,100722.69
2023-01-29T13:49:46.616Z,100732.94
2023-01-29T13:52:46.461Z,100732.81
2023-01-29T13:55:21.233Z,100733.63
2023-01-29T13:57:53.985Z,100719.47
2023-01-29T14:00:22.613Z,100726.38
2023-01-29T14:02:55.976Z,100721.41
2023-01-29T14:05:33.738Z,100716.63
2023-01-29T14:08:14.065Z,100721.41
2023-01-29T14:10:43.822Z,100716.44
2023-01-29T14:13:19.905Z,100716.19
2023-01-29T14:16:26.820Z,100719.47
2023-01-29T14:19:01.322Z,100718.41
2023-01-29T14:21:33.978Z,100709.66
2023-01-29T14:24:20.809Z,100709.28
2023-01-29T14:26:54.551Z,100707.59
2023-01-29T14:29:34.943Z,100701.81
2023-01-29T14:32:20.733Z,100695.56
2023-01-29T14:35:01.261Z,100691.75
2023-01-29T14:37:39.877Z,100691.56
2023-01-29T14:40:20.559Z,100689.69
2023-01-29T14:43:09.214Z,100694.97
2023-01-29T14:45:41.844Z,100676.94
2023-01-29T14:48:12.093Z,100686.50
2023-01-29T14:50:49.038Z,100685.41
2023-01-29T14:53:45.939Z,100683.16
2023-01-29T14:56:24.457Z,100676.47
2023-01-29T14:59:19.585Z,100676.44
2023-01-29T15:01:54.964Z,100674.09
2023-01-29T15:04:30.622Z,100678.28
2023-01-29T15:07:17.333Z,100673.19
2023-01-29T15:10:18.889Z,100673.06
2023-01-29T15:13:15.585Z,100674.31
2023-01-29T15:16:15.017Z,100671.59
2023-01-29T15:18:44.008Z,100668.97
2023-01-29T15:21:18.264Z,100671.50
2023-01-29T15:23:50.598Z,100668.38
2023-01-29T15:26:26.938Z,100673.03
2023-01-29T15:29:03.406Z,100679.78
2023-01-29T15:31:31.859Z,100680.97
2023-01-29T15:34:07.963Z,100681.63
2023-01-29T15:36:37.437Z,100680.28
2023-01-29T15:39:25.238Z,100688.47
2023-01-29T15:42:15.583Z,100693.38
2023-01-29T15:44:46.636Z,100696.53
2023-01-29T15:47:15.225Z,100697.50
2023-01-29T15:49:42.963Z,100693.81
2023-01-29T15:52:24.510Z,100695.84
2023-01-29T15:54:53.071Z,100697.16
2023-01-29T15:57:34.305Z,100688.88
2023-01-29T16:00:03.786Z,100691.00
2023-01-29T16:02:42.197Z,100688.69
2023-01-29T16:05:22.867Z,100695.19
2023-01-29T16:07:52.468Z,100692.19
2023-01-29T16:10:30.491Z,100688.84
2023-01-29T16:12:58.612Z,100690.03
2023-01-29T16:15:40.159Z,100687.34
2023-01-29T16:18:59.030Z,100692.28
2023-01-29T16:21:38.773Z,100689.94
2023-01-29T16:24:13.833Z,100688.41
2023-01-29T16:26:48.020Z,100694.75
2023-01-29T16:29:34.231Z,100699.16
2023-01-29T16:32:02.962Z,100698.91
2023-01-29T16:34:41.745Z,100706.03
2023-01-29T16:37:26.504Z,100712.28
2023-01-29T16:39:54.066Z,100703.59
2023-01-29T16:42:27.479Z,100715.34
2023-01-29T16:45:26.255Z,100716.00
2023-01-29T16:48:33.706Z,100714.84
2023-01-29T16:51:27.015Z,100721.34
2023-01-29T16:54:23.232Z,100725.97
2023-01-29T16:57:00.062Z,100727.53
2023-01-29T16:59:36.674Z,100730.78
2023-01-29T17:02:22.806Z,100736.09
2023-01-29T17:04:54.462Z,100731.78
2023-01-29T17:07:22.377Z,100734.38
2023-01-29T17:09:59.949Z,100737.09
2023-01-29T17:12:29.629Z,100720.88
2023-01-29T17:15:31.887Z,100727.84
2023-01-29T17:17:59.779Z,100726.56
2023-01-29T17:20:27.890Z,100730.31
2023-01-29T17:22:55.251Z,100733.94
2023-01-29T17:25:23.771Z,100728.72
2023-01-29T17:27:54.273Z,100735.66
2023-01-29T17:30:24.031Z,100739.72
2023-01-29T17:32:51.461Z,100749.09
2023-01-29T17:35:21.274Z,100751.94
2023-01-29T17:37:48.838Z,100742.91
2023-01-29T17:40:41.327Z,100745.09
2023-01-29T17:43:14.464Z,100753.53
2023-01-29T17:45:41.889Z,100743.25
2023-01-29T17:48:28.688Z,100743.22
2023-01-29T17:51:03.395Z,100743.84
2023-01-29T17:53:44.790Z,100741.22
2023-01-29T17:56:33.092Z,100737.56
2023-01-29T17:59:15.286Z,100742.72
2023-01-29T18:01:48.067Z,100745.69
2023-01-29T18:04:31.668Z,100750.41
2023-01-29T18:07:03.534Z,100755.91
2023-01-29T18:09:31.502Z,100753.78
2023-01-29T18:12:03.907Z,100745.88
2023-01-29T18:14:37.171Z,100753.84
2023-01-29T18:17:12.260Z,100752.78
2023-01-29T18:19:44.956Z,100756.16
2023-01-29T18:22:17.146Z,100764.13
2023-01-29T18:24:46.864Z,100774.50
2023-01-29T18:27:17.819Z,100767.69
2023-01-29T18:29:48.059Z,100766.03
2023-01-29T18:32:22.777Z,100759.13
2023-01-29T18:34:50.187Z,100751.72
2023-01-29T18:37:25.575Z,100757.31
2023-01-29T18:40:01.128Z,100766.56
2023-01-29T18:42:40.964Z,100754.59
2023-01-29T18:45:13.649Z,100750.94
2023-01-29T18:48:04.435Z,100755.50
2023-01-29T18:50:39.845Z,100752.91
2023-01-29T18:53:07.875Z,100760.97
2023-01-29T18:56:08.794Z,100755.41
2023-01-29T18:58:51.936Z,100764.06
2023-01-29T19:01:28.026Z,100759.50
2023-01-29T19:04:01.002Z,100760.59
2023-01-29T19:06:28.698Z,100759.78
2023-01-29T19:09:18.962Z,100754.63
2023-01-29T19:11:58.580Z,100748.88
2023-01-29T19:14:31.565Z,100755.56
2023-01-29T19:17:04.286Z,100750.44
2023-01-29T19:19:35.244Z,100762.88
2023-01-29T19:22:20.640Z,100765.31
2023-01-29T19:26:54.995Z,100765.03
2023-01-29T19:28:12.253Z,100757.13
2023-01-29T19:30:39.786Z,100758.03
2023-01-29T19:33:07.298Z,100766.22
2023-01-29T19:35:34.516Z,100763.03
2023-01-29T19:38:01.859Z,100768.66
2023-01-29T19:40:29.192Z,100763.22
2023-01-29T19:42:56.672Z,100762.91
2023-01-29T19:45:49.071Z,100764.56
2023-01-29T19:48:21.332Z,100774.69
2023-01-29T19:51:00.132Z,100770.16
2023-01-29T19:53:31.595Z,100768.94
2023-01-29T19:56:09.447Z,100764.69
2023-01-29T19:58:37.446Z,100764.53
2023-01-29T20:01:19.391Z,100762.41
2023-01-29T20:03:49.216Z,100771.66
2023-01-29T20:06:23.609Z,100770.00
2023-01-29T20:08:51.793Z,100762.41
2023-01-29T20:11:22.661Z,100766.78
2023-01-29T20:13:52.552Z,100768.28
2023-01-29T20:16:21.068Z,100766.19
2023-01-29T20:18:48.476Z,100777.84
2023-01-29T20:21:22.790Z,100776.94
2023-01-29T20:23:51.702Z,100781.78
2023-01-29T20:26:22.413Z,100783.28
2023-01-29T20:28:50.200Z,100791.00
2023-01-29T20:31:17.585Z,100791.16
2023-01-29T20:33:45.049Z,100785.56
2023-01-29T20:36:14.812Z,100781.59
2023-01-29T20:38:42.241Z,100776.13
2023-01-29T20:41:14.507Z,100775.50
2023-01-29T20:43:43.652Z,100782.19
2023-01-29T20:46:11.938Z,100784.91
2023-01-29T20:48:39.472Z,100780.66
2023-01-29T20:51:15.761Z,100778.22
2023-01-29T20:53:47.218Z,100779.72
2023-01-29T20:56:17.280Z,100778.19
2023-01-29T20:58:47.410Z,100781.94
2023-01-29T21:01:19.803Z,100781.78
2023-01-29T21:03:48.504Z,100783.28
2023-01-29T21:06:18.286Z,100787.38
2023-01-29T21:08:47.884Z,100780.28
2023-01-29T21:11:17.569Z,100782.09
2023-01-29T21:13:46.815Z,100781.66
2023-01-29T21:16:14.191Z,100775.41
2023-01-29T21:18:41.508Z,100783.53
2023-01-29T21:21:10.830Z,100786.88
2023-01-29T21:23:41.746Z,100779.88
2023-01-29T21:26:09.207Z,100788.38
2023-01-29T21:28:36.614Z,100780.97
2023-01-29T21:31:08.477Z,100783.97
2023-01-29T21:33:36.989Z,100779.25
2023-01-29T21:36:05.428Z,100775.78
2023-01-29T21:38:35.700Z,100772.56
2023-01-29T21:41:08.101Z,100775.22
2023-01-29T21:43:36.575Z,100769.28
2023-01-29T21:46:13.564Z,100772.75
2023-01-29T21:48:41.457Z,100775.31
2023-01-29T21:51:09.329Z,100777.56
2023-01-29T21:53:37.247Z,100774.38
2023-01-29T21:56:06.134Z,100777.56
2023-01-29T21:58:33.490Z,100777.22
2023-01-29T22:01:34.708Z,100783.50
2023-01-29T22:03:48.064Z,100773.47
2023-01-29T22:06:15.882Z,100776.31
2023-01-29T22:08:43.362Z,100775.81
2023-01-29T22:11:11.390Z,100778.06
2023-01-29T22:13:41.767Z,100769.28
2023-01-29T22:16:09.299Z,100773.69
2023-01-29T22:18:41.043Z,100770.63
2023-01-29T22:21:08.548Z,100768.94
2023-01-29T22:23:35.866Z,100761.34
2023-01-29T22:26:06.797Z,100754.72
2023-01-29T22:28:35.088Z,100759.22
2023-01-29T22:31:04.930Z,100758.88
2023-01-29T22:33:33.492Z,100761.03
2023-01-29T22:36:01.556Z,100765.56
2023-01-29T22:38:29.171Z,100757.03
2023-01-29T22:40:59.848Z,100755.50
2023-01-29T22:43:27.223Z,100763.88
2023-01-29T22:45:56.310Z,100764.31
2023-01-29T22:48:24.042Z,100762.56
2023-01-29T22:51:11.948Z,100762.06
2023-01-29T22:53:58.225Z,100759.75
2023-01-29T22:56:29.477Z,100760.47
2023-01-29T22:59:02.886Z,100754.13
2023-01-29T23:01:32.613Z,100764.13
2023-01-29T23:04:00.019Z,100762.72
2023-01-29T23:06:27.399Z,100757.84
2023-01-29T23:08:54.676Z,100752.53
2023-01-29T23:11:24.945Z,100746.91
2023-01-29T23:13:57.234Z,100746.41
2023-01-29T23:16:28.043Z,100744.59
2023-01-29T23:18:56.814Z,100746.50
2023-01-29T23:21:25.370Z,100748.13
2023-01-29T23:23:55.261Z,100746.81
2023-01-29T23:26:41.677Z,100745.56
2023-01-29T23:29:09.837Z,100740.09
2023-01-29T23:31:37.535Z,100743.97
2023-01-29T23:34:05.188Z,100744.66
2023-01-29T23:36:32.422Z,100740.53
2023-01-29T23:38:59.680Z,100759.31
2023-01-29T23:41:27.008Z,100747.06
2023-01-29T23:43:54.277Z,100749.66
2023-01-29T23:46:21.675Z,100752.81
2023-01-29T23:48:48.943Z,100745.38
2023-01-29T23:51:16.279Z,100743.94
2023-01-29T23:53:43.664Z,100732.41
2023-01-29T23:56:11.565Z,100741.72
2023-01-29T23:58:39.084Z,100737.84
